Time;durP1;ratioP1;P1;durP2;ratioP2;P2;SDS_P1;SDS_P2;PMS_P1;PMS_P2;Temp;Humidity;BMP_temperature;BMP_pressure;BME280_temperature;BME280_humidity;BME280_pressure;Samples;Min_cycle;Max_cycle;Signal;HPM_P1;HPM_P2
2023/08/13 00:01:31;;;;;;;5.72;1.60;;;18.30;97.10;;;;;;5033641;28;20056;-80
2023/08/13 00:03:57;;;;;;;6.82;1.88;;;18.30;97.10;;;;;;5033904;28;20056;-80
2023/08/13 00:06:23;;;;;;;6.72;1.92;;;18.30;97.50;;;;;;5032774;28;20521;-80
2023/08/13 00:08:48;;;;;;;7.18;2.10;;;18.20;97.40;;;;;;5032339;28;20526;-81
2023/08/13 00:11:14;;;;;;;5.57;1.70;;;18.20;97.20;;;;;;5033683;28;20049;-81
2023/08/13 00:13:41;;;;;;;7.55;2.33;;;18.20;97.30;;;;;;5035004;28;20557;-81
2023/08/13 00:16:08;;;;;;;8.65;2.25;;;18.20;97.30;;;;;;5032295;28;20092;-81
2023/08/13 00:18:34;;;;;;;6.72;1.80;;;18.10;97.10;;;;;;5033623;28;20092;-79
2023/08/13 00:21:00;;;;;;;5.22;1.70;;;18.10;97.20;;;;;;5033496;28;20039;-81
2023/08/13 00:23:26;;;;;;;5.10;1.70;;;18.10;97.60;;;;;;5033538;28;20048;-81
2023/08/13 00:25:52;;;;;;;7.43;2.00;;;18.10;97.80;;;;;;5033664;28;20053;-81
2023/08/13 00:28:17;;;;;;;8.90;2.30;;;18.10;97.80;;;;;;5038414;28;20073;-81
2023/08/13 00:30:43;;;;;;;8.65;2.13;;;18.00;97.60;;;;;;5037299;28;20033;-80
2023/08/13 00:33:09;;;;;;;6.40;2.40;;;18.10;98.20;;;;;;5032009;28;20048;-80
2023/08/13 00:35:34;;;;;;;10.45;2.13;;;18.10;98.40;;;;;;5032601;28;20045;-81
2023/08/13 00:38:00;;;;;;;6.25;1.90;;;18.00;98.20;;;;;;5033098;28;20056;-81
2023/08/13 00:40:25;;;;;;;8.77;1.95;;;18.00;98.40;;;;;;5032951;28;20395;-80
2023/08/13 00:42:52;;;;;;;7.32;2.03;;;18.00;98.50;;;;;;5032961;28;20088;-80
2023/08/13 00:45:18;;;;;;;6.45;1.80;;;18.00;98.60;;;;;;5032335;28;20096;-81
2023/08/13 00:47:44;;;;;;;6.82;2.05;;;18.00;98.60;;;;;;5036755;28;20435;-81
2023/08/13 00:50:11;;;;;;;7.38;2.00;;;18.00;98.70;;;;;;5053253;28;20526;-81
2023/08/13 00:52:37;;;;;;;7.15;1.80;;;18.00;98.50;;;;;;5053227;28;20122;-81
2023/08/13 00:55:04;;;;;;;7.95;2.03;;;17.90;98.50;;;;;;5053442;28;20429;-81
2023/08/13 00:57:30;;;;;;;7.40;1.90;;;17.90;98.60;;;;;;5053334;28;20067;-81
2023/08/13 00:59:57;;;;;;;8.43;2.17;;;17.90;98.50;;;;;;5042258;28;20101;-81
2023/08/13 01:02:23;;;;;;;7.22;2.15;;;17.80;98.30;;;;;;5034449;28;20404;-81
2023/08/13 01:04:49;;;;;;;7.55;1.90;;;17.80;98.60;;;;;;5045436;28;20045;-81
2023/08/13 01:07:32;;;;;;;7.43;2.10;;;17.80;98.90;;;;;;5032719;28;20037;-80
2023/08/13 01:09:58;;;;;;;;;;;17.80;98.70;;;;;;5033223;28;20045;-80
2023/08/13 01:12:49;;;;;;;7.95;2.20;;;17.70;97.70;;;;;;5033176;28;20371;-81
2023/08/13 01:15:19;;;;;;;7.97;1.90;;;17.70;98.20;;;;;;5032315;28;20041;-80
2023/08/13 01:17:48;;;;;;;8.13;2.03;;;17.70;98.50;;;;;;5032535;28;20488;-80
2023/08/13 01:20:15;;;;;;;6.68;2.17;;;17.70;98.70;;;;;;5032189;28;20874;-80
2023/08/13 01:22:48;;;;;;;6.88;1.90;;;17.70;98.80;;;;;;5032760;28;20046;-81
2023/08/13 01:25:14;;;;;;;6.75;2.00;;;17.70;98.50;;;;;;5032196;28;20037;-80
2023/08/13 01:27:49;;;;;;;8.45;2.00;;;17.60;98.60;;;;;;5032858;28;20091;-81
2023/08/13 01:30:39;;;;;;;7.28;1.80;;;17.60;98.80;;;;;;5031380;28;20507;-80
2023/08/13 01:33:07;;;;;;;7.35;1.88;;;17.60;98.50;;;;;;5026018;28;20388;-80
2023/08/13 01:35:34;;;;;;;8.82;2.17;;;17.50;98.60;;;;;;5033442;28;20077;-80
2023/08/13 01:38:01;;;;;;;7.65;2.15;;;17.60;98.70;;;;;;5031523;28;20045;-80
2023/08/13 01:40:27;;;;;;;8.07;2.20;;;17.60;98.50;;;;;;5032210;28;20037;-81
2023/08/13 01:42:52;;;;;;;6.90;1.90;;;17.60;98.70;;;;;;5031355;28;20049;-80
2023/08/13 01:45:19;;;;;;;6.55;2.10;;;17.50;98.30;;;;;;5040431;28;20095;-80
2023/08/13 01:47:45;;;;;;;7.68;1.90;;;17.50;98.20;;;;;;5032240;28;20399;-81
2023/08/13 01:50:11;;;;;;;7.53;1.98;;;17.50;98.40;;;;;;5033161;28;20798;-82
2023/08/13 01:52:36;;;;;;;12.13;2.08;;;17.50;98.40;;;;;;5033271;28;20042;-81
2023/08/13 01:55:03;;;;;;;8.73;2.00;;;17.40;98.60;;;;;;5034040;28;20053;-81
2023/08/13 01:57:29;;;;;;;9.18;2.13;;;17.40;98.80;;;;;;5035061;28;20061;-81
2023/08/13 01:59:55;;;;;;;6.40;1.90;;;17.40;98.30;;;;;;5033738;28;20045;-81
2023/08/13 02:02:20;;;;;;;7.65;2.08;;;17.40;98.20;;;;;;5034830;28;20041;-81
2023/08/13 02:04:46;;;;;;;11.32;2.55;;;17.40;98.00;;;;;;5033997;28;20045;-80
2023/08/13 02:07:12;;;;;;;12.00;2.58;;;17.40;98.00;;;;;;5035105;28;20506;-81
2023/08/13 02:09:40;;;;;;;7.55;1.92;;;17.30;98.00;;;;;;5036086;28;20107;-81
2023/08/13 02:12:06;;;;;;;7.78;2.22;;;17.30;97.80;;;;;;5034972;28;20104;-81
2023/08/13 02:14:32;;;;;;;7.95;2.05;;;17.30;98.00;;;;;;5036169;28;20053;-81
2023/08/13 02:16:59;;;;;;;7.75;2.30;;;17.30;98.30;;;;;;5036252;28;20398;-81
2023/08/13 02:19:24;;;;;;;10.07;2.42;;;17.20;98.20;;;;;;5035926;28;20049;-81
2023/08/13 02:21:50;;;;;;;9.05;2.08;;;17.20;98.20;;;;;;5035683;28;20048;-81
2023/08/13 02:24:16;;;;;;;7.80;1.92;;;17.20;98.10;;;;;;5031673;28;20120;-81
2023/08/13 02:26:41;;;;;;;8.40;1.92;;;17.20;98.00;;;;;;5035142;28;20069;-81
2023/08/13 02:29:07;;;;;;;7.45;1.83;;;17.20;98.00;;;;;;5018873;28;20048;-81
2023/08/13 02:31:33;;;;;;;5.40;1.80;;;17.10;97.80;;;;;;5034305;28;20115;-80
2023/08/13 02:33:58;;;;;;;6.38;2.00;;;17.10;97.70;;;;;;5035268;28;20034;-81
2023/08/13 02:36:24;;;;;;;6.55;1.95;;;17.10;97.60;;;;;;5034135;28;20045;-81
2023/08/13 02:38:49;;;;;;;8.20;2.10;;;17.10;97.70;;;;;;5034889;28;20049;-81
2023/08/13 02:41:15;;;;;;;6.72;1.90;;;17.10;97.80;;;;;;5033714;28;20097;-81
2023/08/13 02:43:55;;;;;;;8.98;2.22;;;17.10;97.90;;;;;;5034997;28;20045;-81
2023/08/13 02:46:23;;;;;;;7.63;2.22;;;17.00;98.40;;;;;;5034140;28;20126;-81
2023/08/13 02:48:50;;;;;;;8.77;2.15;;;17.10;99.00;;;;;;5035242;28;20068;-81
2023/08/13 02:51:16;;;;;;;6.05;2.00;;;17.10;99.00;;;;;;5035349;28;20103;-81
2023/08/13 02:53:42;;;;;;;6.03;2.00;;;17.00;99.00;;;;;;5034729;28;20456;-81
2023/08/13 02:56:08;;;;;;;7.10;2.03;;;17.00;99.20;;;;;;5033868;28;20049;-80
2023/08/13 02:58:34;;;;;;;6.40;2.03;;;17.00;99.40;;;;;;5033955;28;20137;-81
2023/08/13 03:00:59;;;;;;;8.93;2.30;;;17.00;99.10;;;;;;5034875;28;20112;-81
2023/08/13 03:03:25;;;;;;;7.95;2.00;;;17.00;99.10;;;;;;5033593;28;20545;-81
2023/08/13 03:05:51;;;;;;;8.68;2.20;;;17.00;99.40;;;;;;5034470;28;20041;-81
2023/08/13 03:08:17;;;;;;;6.30;1.88;;;17.00;99.60;;;;;;5033301;28;20042;-81
2023/08/13 03:10:42;;;;;;;7.57;2.25;;;17.00;99.80;;;;;;5033491;28;20077;-81
2023/08/13 03:13:08;;;;;;;8.10;2.10;;;16.90;99.70;;;;;;5033652;28;20041;-81
2023/08/13 03:15:34;;;;;;;8.90;2.35;;;17.00;99.80;;;;;;5034525;28;20048;-81
2023/08/13 03:17:59;;;;;;;6.47;1.92;;;16.90;99.40;;;;;;5034202;28;20049;-81
2023/08/13 03:20:25;;;;;;;7.10;2.00;;;16.90;99.60;;;;;;5034857;28;20053;-81
2023/08/13 03:22:50;;;;;;;7.93;2.10;;;16.90;99.60;;;;;;5042355;28;20451;-81
2023/08/13 03:25:16;;;;;;;10.70;2.40;;;16.90;99.70;;;;;;5033331;28;20056;-81
2023/08/13 03:27:42;;;;;;;8.18;2.30;;;16.90;99.70;;;;;;5034622;28;20049;-81
2023/08/13 03:30:08;;;;;;;8.32;2.30;;;16.90;99.60;;;;;;5034650;28;20049;-81
2023/08/13 03:32:35;;;;;;;7.97;2.03;;;16.90;99.70;;;;;;5034458;28;20433;-81
2023/08/13 03:35:00;;;;;;;12.05;2.88;;;16.80;99.40;;;;;;5034269;28;20129;-81
2023/08/13 03:37:26;;;;;;;7.30;1.92;;;16.80;99.30;;;;;;5035391;28;20128;-80
2023/08/13 03:39:51;;;;;;;8.43;2.28;;;16.80;99.30;;;;;;5033721;28;20091;-81
2023/08/13 03:42:17;;;;;;;8.82;2.25;;;16.80;99.50;;;;;;5033075;28;20507;-81
2023/08/13 03:44:43;;;;;;;7.55;2.08;;;16.80;99.30;;;;;;5049603;28;20499;-81
2023/08/13 03:47:09;;;;;;;8.52;2.35;;;16.80;99.30;;;;;;5033113;28;20033;-81
2023/08/13 03:49:35;;;;;;;5.72;1.98;;;16.80;99.40;;;;;;5038665;28;20051;-81
2023/08/13 03:52:00;;;;;;;7.25;2.30;;;16.70;99.60;;;;;;5050815;28;20091;-80
2023/08/13 03:54:26;;;;;;;8.13;2.30;;;16.70;99.70;;;;;;5032900;28;20513;-81
2023/08/13 03:56:52;;;;;;;8.60;2.60;;;16.70;99.70;;;;;;5033637;28;20415;-80
2023/08/13 03:59:18;;;;;;;9.13;2.38;;;16.70;99.40;;;;;;5034044;28;20208;-81
2023/08/13 04:01:44;;;;;;;7.03;2.03;;;16.70;99.60;;;;;;5034106;28;20049;-81
2023/08/13 04:04:09;;;;;;;10.73;2.67;;;16.70;99.60;;;;;;5037970;28;20037;-81
2023/08/13 04:06:35;;;;;;;9.02;2.30;;;16.60;99.40;;;;;;5052975;28;20037;-81
2023/08/13 04:09:00;;;;;;;9.23;2.10;;;16.70;99.60;;;;;;5034960;28;20048;-81
2023/08/13 04:11:26;;;;;;;8.35;2.00;;;16.60;99.70;;;;;;5033921;28;20053;-81
2023/08/13 04:13:52;;;;;;;8.80;2.28;;;16.60;99.50;;;;;;5033652;28;20053;-80
2023/08/13 04:16:17;;;;;;;8.30;2.30;;;16.60;99.30;;;;;;5033250;28;20034;-81
2023/08/13 04:18:43;;;;;;;12.60;2.90;;;16.60;99.20;;;;;;5033261;28;20037;-81
2023/08/13 04:21:09;;;;;;;10.73;2.75;;;16.60;99.30;;;;;;5033138;28;20458;-80
2023/08/13 04:23:35;;;;;;;12.85;2.72;;;16.50;99.50;;;;;;5033199;28;20132;-81
2023/08/13 04:26:00;;;;;;;13.80;2.80;;;16.50;99.80;;;;;;5032602;28;20136;-81
2023/08/13 04:28:26;;;;;;;9.18;2.50;;;16.60;99.80;;;;;;5033711;28;20042;-80
2023/08/13 04:30:52;;;;;;;14.52;2.95;;;16.50;99.90;;;;;;5033641;28;20057;-81
2023/08/13 04:33:17;;;;;;;8.90;2.97;;;16.50;99.90;;;;;;5048252;28;20037;-81
2023/08/13 04:35:43;;;;;;;11.50;2.55;;;16.50;99.90;;;;;;5053372;28;20041;-81
2023/08/13 04:38:08;;;;;;;13.75;2.60;;;16.50;99.70;;;;;;5053581;28;20053;-81
2023/08/13 04:40:34;;;;;;;11.93;2.78;;;16.50;99.90;;;;;;5053649;28;20052;-81
2023/08/13 04:43:00;;;;;;;11.70;2.42;;;16.50;99.90;;;;;;5053359;28;20475;-80
2023/08/13 04:45:26;;;;;;;9.18;2.65;;;16.50;99.80;;;;;;5053379;28;20049;-81
2023/08/13 04:47:51;;;;;;;11.18;2.88;;;16.50;99.60;;;;;;5039553;28;20415;-81
2023/08/13 04:50:17;;;;;;;15.48;2.95;;;16.50;99.70;;;;;;5032939;28;20425;-80
2023/08/13 04:52:43;;;;;;;12.70;2.92;;;16.50;99.90;;;;;;5033459;28;20045;-80
2023/08/13 04:55:09;;;;;;;13.95;3.30;;;16.50;99.90;;;;;;5033304;28;20041;-81
2023/08/13 04:57:35;;;;;;;10.65;2.70;;;16.50;99.90;;;;;;5044308;28;20063;-80
2023/08/13 05:00:01;;;;;;;13.18;3.22;;;16.50;99.90;;;;;;5034380;28;20080;-81
2023/08/13 05:02:27;;;;;;;11.10;3.20;;;16.50;99.90;;;;;;5033457;28;20052;-81
2023/08/13 05:04:54;;;;;;;12.50;2.97;;;16.60;99.90;;;;;;5033498;28;20046;-81
2023/08/13 05:07:19;;;;;;;16.27;3.45;;;16.50;99.90;;;;;;5033465;28;20071;-80
2023/08/13 05:09:45;;;;;;;11.27;2.90;;;16.60;99.90;;;;;;5033410;28;20483;-81
2023/08/13 05:12:10;;;;;;;10.88;2.88;;;16.60;99.90;;;;;;5033228;28;20071;-81
2023/08/13 05:14:36;;;;;;;12.65;3.03;;;16.60;99.90;;;;;;5034273;28;20061;-81
2023/08/13 05:17:02;;;;;;;8.50;3.00;;;16.60;99.90;;;;;;5032917;28;20536;-81
2023/08/13 05:19:28;;;;;;;13.63;3.38;;;16.60;99.90;;;;;;5033123;28;20085;-81
2023/08/13 05:21:54;;;;;;;9.90;3.22;;;16.60;99.90;;;;;;5033269;28;20084;-81
2023/08/13 05:24:19;;;;;;;13.50;3.35;;;16.60;99.90;;;;;;5033149;28;20041;-81
2023/08/13 05:26:45;;;;;;;11.65;3.15;;;16.60;99.90;;;;;;5048347;28;20067;-81
2023/08/13 05:29:10;;;;;;;12.27;2.97;;;16.60;99.90;;;;;;5053285;28;20388;-81
2023/08/13 05:31:36;;;;;;;10.35;2.85;;;16.70;99.90;;;;;;5041112;28;20399;-81
2023/08/13 05:34:02;;;;;;;13.60;3.00;;;16.70;99.90;;;;;;5038399;28;20083;-81
2023/08/13 05:36:28;;;;;;;11.43;2.75;;;16.70;99.90;;;;;;5050050;28;20079;-81
2023/08/13 05:38:57;;;;;;;13.90;3.45;;;16.70;99.90;;;;;;5035671;28;20041;-81
2023/08/13 05:41:23;;;;;;;12.95;3.10;;;16.70;99.90;;;;;;5036609;28;20618;-81
2023/08/13 05:43:48;;;;;;;12.57;3.42;;;16.70;99.90;;;;;;5036357;28;20140;-81
2023/08/13 05:46:14;;;;;;;12.30;3.72;;;16.70;99.90;;;;;;5035731;28;20476;-81
2023/08/13 05:48:39;;;;;;;10.65;2.90;;;16.80;99.90;;;;;;5036752;28;20422;-81
2023/08/13 05:51:05;;;;;;;12.52;2.97;;;16.80;99.90;;;;;;5034352;28;20060;-80
2023/08/13 05:53:31;;;;;;;16.13;3.63;;;16.80;99.90;;;;;;5036566;28;20041;-82
2023/08/13 05:55:59;;;;;;;11.65;3.17;;;16.80;99.90;;;;;;5036250;28;20052;-80
2023/08/13 05:58:24;;;;;;;11.23;2.92;;;16.80;99.90;;;;;;5036469;28;20089;-81
2023/08/13 06:00:50;;;;;;;11.95;3.33;;;16.80;99.90;;;;;;5035505;28;20470;-80
2023/08/13 06:03:16;;;;;;;11.00;3.33;;;16.80;99.90;;;;;;5036044;28;20392;-81
2023/08/13 06:05:41;;;;;;;12.00;3.47;;;16.80;99.90;;;;;;5039939;28;20076;-81
2023/08/13 06:08:07;;;;;;;11.27;3.05;;;16.80;99.90;;;;;;5037196;28;20041;-80
2023/08/13 06:10:32;;;;;;;9.48;2.38;;;16.90;99.90;;;;;;5036505;28;20461;-80
2023/08/13 06:12:58;;;;;;;14.25;3.45;;;16.90;99.90;;;;;;5035497;28;20509;-81
2023/08/13 06:15:24;;;;;;;8.10;2.88;;;16.90;99.90;;;;;;5035259;28;20037;-80
2023/08/13 06:17:49;;;;;;;10.50;3.10;;;16.90;99.90;;;;;;5035376;28;20399;-80
2023/08/13 06:20:18;;;;;;;9.43;2.85;;;16.90;99.90;;;;;;5036023;28;20485;-81
2023/08/13 06:22:47;;;;;;;13.23;3.33;;;16.90;99.90;;;;;;5016318;28;20057;-81
2023/08/13 06:25:15;;;;;;;14.05;3.47;;;17.00;99.90;;;;;;5026361;28;20033;-80
2023/08/13 06:27:41;;;;;;;11.38;3.15;;;17.00;99.90;;;;;;5034518;28;20045;-81
2023/08/13 06:30:10;;;;;;;11.75;3.38;;;17.00;99.90;;;;;;5034173;28;20495;-81
2023/08/13 06:32:35;;;;;;;11.70;3.65;;;17.00;99.90;;;;;;5034730;28;20056;-80
2023/08/13 06:35:01;;;;;;;10.55;3.17;;;17.00;99.90;;;;;;5036470;28;20053;-80
2023/08/13 06:37:27;;;;;;;12.70;3.85;;;17.00;99.90;;;;;;5035205;28;20072;-81
2023/08/13 06:39:53;;;;;;;14.60;3.72;;;17.10;99.90;;;;;;5033296;28;20037;-81
2023/08/13 06:42:18;;;;;;;17.15;4.00;;;17.20;99.90;;;;;;5035186;28;20042;-80
2023/08/13 06:44:44;;;;;;;18.17;3.78;;;17.20;99.90;;;;;;5017319;28;20052;-81
2023/08/13 06:47:09;;;;;;;14.18;3.75;;;17.20;99.90;;;;;;5034670;28;20052;-80
2023/08/13 06:49:35;;;;;;;11.45;3.55;;;17.30;99.90;;;;;;5040418;28;20037;-81
2023/08/13 06:52:01;;;;;;;13.48;4.03;;;17.30;99.90;;;;;;5054212;28;20052;-80
2023/08/13 06:54:26;;;;;;;14.05;3.97;;;17.30;99.90;;;;;;5048240;28;20455;-81
2023/08/13 06:56:52;;;;;;;13.07;3.47;;;17.40;99.90;;;;;;5034236;28;20049;-81
2023/08/13 06:59:17;;;;;;;12.70;3.38;;;17.50;99.90;;;;;;5033843;28;20072;-81
2023/08/13 07:01:43;;;;;;;13.00;3.72;;;17.50;99.90;;;;;;5034778;28;20410;-80
2023/08/13 07:04:09;;;;;;;14.88;3.63;;;17.50;99.90;;;;;;5051235;28;20052;-81
2023/08/13 07:06:35;;;;;;;14.95;3.80;;;17.50;99.90;;;;;;5033788;28;20049;-80
2023/08/13 07:09:03;;;;;;;11.63;3.05;;;17.60;99.90;;;;;;5035781;28;20040;-81
2023/08/13 07:11:29;;;;;;;13.80;4.07;;;17.60;99.90;;;;;;5032703;28;20049;-80
2023/08/13 07:13:57;;;;;;;12.23;3.55;;;17.70;99.90;;;;;;5037677;28;20494;-81
2023/08/13 07:16:22;;;;;;;14.20;3.40;;;17.80;99.90;;;;;;5034968;28;20060;-80
2023/08/13 07:18:48;;;;;;;10.02;3.45;;;17.80;99.90;;;;;;5056332;28;20049;-81
2023/08/13 07:21:14;;;;;;;12.27;3.13;;;17.90;99.90;;;;;;5054866;28;20045;-81
2023/08/13 07:23:39;;;;;;;16.05;3.92;;;17.90;99.90;;;;;;5040606;28;20068;-81
2023/08/13 07:26:05;;;;;;;15.63;3.78;;;18.00;99.90;;;;;;5033448;28;20081;-81
2023/08/13 07:28:34;;;;;;;16.83;3.92;;;18.00;99.90;;;;;;5034246;28;20041;-81
2023/08/13 07:31:03;;;;;;;16.15;4.00;;;18.10;99.90;;;;;;5034844;28;20069;-82
2023/08/13 07:33:30;;;;;;;10.90;3.28;;;18.10;99.90;;;;;;5034570;28;20103;-81
2023/08/13 07:35:57;;;;;;;15.73;3.88;;;18.20;99.90;;;;;;5044354;28;20092;-81
2023/08/13 07:38:22;;;;;;;14.85;3.88;;;18.30;99.90;;;;;;5033207;28;20578;-81
2023/08/13 07:40:48;;;;;;;10.82;3.20;;;18.40;99.90;;;;;;5042932;28;20048;-81
2023/08/13 07:43:14;;;;;;;10.10;2.58;;;18.40;99.90;;;;;;5042795;28;20037;-81
2023/08/13 07:45:39;;;;;;;12.18;3.00;;;18.50;99.90;;;;;;5035217;28;20045;-80
2023/08/13 07:48:05;;;;;;;17.88;3.90;;;18.60;99.90;;;;;;5042331;28;20107;-80
2023/08/13 07:50:31;;;;;;;12.75;3.13;;;18.70;99.90;;;;;;5033944;28;20506;-80
2023/08/13 07:52:58;;;;;;;11.48;3.30;;;18.70;99.90;;;;;;5033668;28;20045;-80
2023/08/13 07:55:24;;;;;;;12.57;3.30;;;18.80;99.90;;;;;;5032130;28;20056;-80
2023/08/13 07:57:50;;;;;;;10.50;3.00;;;18.90;99.90;;;;;;5031694;28;20430;-78
2023/08/13 08:00:16;;;;;;;12.70;2.78;;;18.90;99.90;;;;;;5033687;28;20049;-80
2023/08/13 08:02:42;;;;;;;12.23;3.15;;;19.00;99.90;;;;;;5040958;28;20491;-79
2023/08/13 08:05:09;;;;;;;14.55;2.85;;;19.10;99.90;;;;;;5048954;28;20072;-79
2023/08/13 08:07:35;;;;;;;12.63;2.60;;;19.20;99.90;;;;;;5033579;28;20045;-80
2023/08/13 08:10:01;;;;;;;9.82;2.58;;;19.30;99.90;;;;;;5033409;28;20479;-80
2023/08/13 08:12:26;;;;;;;12.13;2.67;;;19.30;99.90;;;;;;5032189;28;20057;-80
2023/08/13 08:14:55;;;;;;;15.45;2.80;;;19.40;99.90;;;;;;5033259;28;20045;-80
2023/08/13 08:17:24;;;;;;;15.70;3.08;;;19.50;99.90;;;;;;5033107;28;20140;-80
2023/08/13 08:19:54;;;;;;;11.82;2.70;;;19.60;99.90;;;;;;5032219;28;20049;-80
2023/08/13 08:22:19;;;;;;;11.75;2.47;;;19.70;99.90;;;;;;5032900;28;20049;-80
2023/08/13 08:24:45;;;;;;;15.27;2.60;;;19.70;99.90;;;;;;5032015;28;20053;-80
2023/08/13 08:27:11;;;;;;;15.32;2.75;;;19.90;99.90;;;;;;5034448;28;20095;-80
2023/08/13 08:29:36;;;;;;;11.93;2.90;;;19.90;99.90;;;;;;5033250;28;20048;-80
2023/08/13 08:32:02;;;;;;;13.05;2.67;;;20.00;99.70;;;;;;5033426;28;20110;-80
2023/08/13 08:34:30;;;;;;;9.43;2.10;;;20.00;99.50;;;;;;5033178;28;20041;-80
2023/08/13 08:36:56;;;;;;;9.98;2.42;;;20.10;99.40;;;;;;5032003;28;20100;-80
2023/08/13 08:39:21;;;;;;;10.05;2.70;;;20.10;99.30;;;;;;5048480;28;20049;-80
2023/08/13 08:41:48;;;;;;;12.65;2.72;;;20.20;99.20;;;;;;5034089;28;20103;-80
2023/08/13 08:44:23;;;;;;;12.52;2.40;;;20.30;99.10;;;;;;5033175;28;20045;-80
2023/08/13 08:46:50;;;;;;;9.57;2.22;;;20.30;98.80;;;;;;5041164;28;20048;-80
2023/08/13 08:49:21;;;;;;;11.80;2.33;;;20.40;98.90;;;;;;5052885;28;20407;-80
2023/08/13 08:51:48;;;;;;;9.63;2.50;;;20.50;98.90;;;;;;5052864;28;20037;-80
2023/08/13 08:54:14;;;;;;;9.95;2.30;;;20.50;98.70;;;;;;5053048;28;20049;-80
2023/08/13 08:56:40;;;;;;;12.10;2.20;;;20.60;98.50;;;;;;5050002;28;20052;-80
2023/08/13 08:59:06;;;;;;;9.23;2.50;;;20.60;98.40;;;;;;5053539;28;20049;-80
2023/08/13 09:01:32;;;;;;;10.00;2.70;;;20.70;98.40;;;;;;5042220;28;20045;-80
2023/08/13 09:03:59;;;;;;;11.32;2.28;;;20.80;98.30;;;;;;5033705;28;20395;-80
2023/08/13 09:06:53;;;;;;;10.30;2.20;;;20.90;98.20;;;;;;5034793;28;20033;-80
2023/08/13 09:09:19;;;;;;;10.60;2.58;;;20.90;98.10;;;;;;5054160;28;20053;-79
2023/08/13 09:11:46;;;;;;;14.00;2.55;;;21.00;98.20;;;;;;5056932;28;20051;-81
2023/08/13 09:14:11;;;;;;;9.98;2.30;;;21.00;98.00;;;;;;5055004;28;20041;-80
2023/08/13 09:16:38;;;;;;;8.85;2.15;;;21.10;98.10;;;;;;5055906;28;20106;-80
2023/08/13 09:19:03;;;;;;;10.73;1.83;;;21.20;98.00;;;;;;5056641;28;20103;-81
2023/08/13 09:21:29;;;;;;;8.50;1.92;;;21.30;97.70;;;;;;5056837;28;20041;-80
2023/08/13 09:23:56;;;;;;;11.82;1.88;;;21.30;97.40;;;;;;5055370;28;20090;-81
2023/08/13 09:26:25;;;;;;;9.18;2.00;;;21.40;97.00;;;;;;5055505;28;20057;-80
2023/08/13 09:28:50;;;;;;;10.70;2.10;;;21.50;97.00;;;;;;5050049;28;20121;-80
2023/08/13 09:31:16;;;;;;;9.48;1.88;;;21.50;96.30;;;;;;5035697;28;20473;-81
2023/08/13 09:33:45;;;;;;;9.88;2.17;;;21.50;96.10;;;;;;5049466;28;20075;-79
2023/08/13 09:36:11;;;;;;;530.22;29.63;;;21.60;95.90;;;;;;5034153;28;20045;-81
2023/08/13 09:38:37;;;;;;;11.93;2.10;;;21.60;95.80;;;;;;5035975;28;20053;-84
2023/08/13 09:41:04;;;;;;;7.25;1.52;;;21.70;95.80;;;;;;5035948;28;20052;-80
2023/08/13 09:43:31;;;;;;;11.20;2.22;;;21.70;96.20;;;;;;5036351;28;20042;-81
2023/08/13 09:46:00;;;;;;;8.77;1.90;;;21.80;95.90;;;;;;5035516;28;20450;-84
2023/08/13 09:48:27;;;;;;;7.70;1.73;;;21.80;95.80;;;;;;5047987;28;20041;-86
2023/08/13 09:50:55;;;;;;;7.82;1.75;;;21.80;96.00;;;;;;5042225;28;20057;-80
2023/08/13 09:53:24;;;;;;;8.25;1.85;;;21.90;95.80;;;;;;5034753;28;20064;-80
2023/08/13 09:56:00;;;;;;;9.25;1.85;;;22.00;95.80;;;;;;5035957;28;20045;-81
2023/08/13 09:58:26;;;;;;;7.75;1.42;;;22.00;95.70;;;;;;5035315;28;20053;-81
2023/08/13 10:00:52;;;;;;;7.78;1.67;;;22.10;95.60;;;;;;5046333;28;20723;-81
2023/08/13 10:03:23;;;;;;;8.60;1.83;;;22.10;94.60;;;;;;5034671;28;20033;-80
2023/08/13 10:05:49;;;;;;;6.95;1.77;;;22.10;94.90;;;;;;5034971;28;20506;-81
2023/08/13 10:08:15;;;;;;;8.25;1.83;;;22.10;95.20;;;;;;5034544;28;20092;-80
2023/08/13 10:10:41;;;;;;;8.82;1.60;;;22.10;95.10;;;;;;5033964;28;20049;-82
2023/08/13 10:13:07;;;;;;;7.30;1.60;;;22.20;95.40;;;;;;5035921;28;20045;-81
2023/08/13 10:15:35;;;;;;;8.20;1.70;;;22.30;95.20;;;;;;5038214;28;20049;-80
2023/08/13 10:18:02;;;;;;;9.25;1.80;;;22.30;95.30;;;;;;5039757;28;20525;-81
2023/08/13 10:20:28;;;;;;;6.93;1.50;;;22.40;95.00;;;;;;5032886;28;20084;-80
2023/08/13 10:22:54;;;;;;;8.88;1.83;;;22.40;94.70;;;;;;5032606;28;20073;-80
2023/08/13 10:25:32;;;;;;;4.72;1.23;;;22.50;94.80;;;;;;5032614;28;20033;-80
2023/08/13 10:27:58;;;;;;;5.85;1.50;;;22.60;94.80;;;;;;5033560;28;20364;-80
2023/08/13 10:30:24;;;;;;;8.45;1.60;;;22.60;94.20;;;;;;5049609;28;20136;-81
2023/08/13 10:33:03;;;;;;;8.10;1.40;;;22.70;94.00;;;;;;5035462;28;20052;-80
2023/08/13 10:35:34;;;;;;;6.25;1.30;;;22.70;93.20;;;;;;5034460;28;20103;-80
2023/08/13 10:38:02;;;;;;;6.80;1.45;;;22.70;94.30;;;;;;5035365;28;20060;-80
2023/08/13 10:40:28;;;;;;;9.18;1.67;;;22.70;94.30;;;;;;5034276;28;20054;-80
2023/08/13 10:42:59;;;;;;;9.25;1.60;;;22.80;94.10;;;;;;5050622;28;20059;-81
2023/08/13 10:45:25;;;;;;;8.35;1.40;;;22.80;93.80;;;;;;5036137;28;20044;-81
2023/08/13 10:47:56;;;;;;;5.55;1.40;;;22.90;93.60;;;;;;5033998;28;20381;-81
2023/08/13 10:50:37;;;;;;;7.18;1.35;;;22.90;93.50;;;;;;5035259;28;20041;-81
2023/08/13 10:53:10;;;;;;;6.28;1.40;;;22.90;93.50;;;;;;5050523;28;20042;-81
2023/08/13 10:55:40;;;;;;;4.82;1.20;;;22.90;93.80;;;;;;5035127;28;20433;-81
2023/08/13 10:58:07;;;;;;;4.45;1.10;;;22.90;94.00;;;;;;5063444;28;20491;-81
2023/08/13 11:00:42;;;;;;;7.50;1.52;;;22.90;93.70;;;;;;5054706;28;20052;-82
2023/08/13 11:03:22;;;;;;;6.18;1.40;;;23.00;93.00;;;;;;5036643;28;20072;-81
2023/08/13 11:05:49;;;;;;;7.05;1.13;;;23.00;92.80;;;;;;5054820;28;20041;-81
2023/08/13 11:08:17;;;;;;;6.40;1.23;;;23.00;92.60;;;;;;5054669;28;20387;-81
2023/08/13 11:10:45;;;;;;;4.97;1.30;;;23.10;92.80;;;;;;5053069;28;20095;-81
2023/08/13 11:13:11;;;;;;;6.00;1.30;;;23.10;92.40;;;;;;5052741;28;20045;-81
2023/08/13 11:15:41;;;;;;;5.53;1.13;;;23.10;93.50;;;;;;5049476;28;20118;-81
2023/08/13 11:18:07;;;;;;;5.30;1.35;;;23.20;92.70;;;;;;5034360;28;20037;-81
2023/08/13 11:20:33;;;;;;;6.07;1.25;;;23.20;92.40;;;;;;5031734;28;20049;-81
2023/08/13 11:23:03;;;;;;;5.75;1.20;;;23.20;92.90;;;;;;5034225;28;20052;-81
2023/08/13 11:25:28;;;;;;;3.30;1.00;;;23.30;92.80;;;;;;5038205;28;20053;-81
2023/08/13 11:27:54;;;;;;;7.63;1.40;;;23.30;93.50;;;;;;5030637;28;20383;-82
2023/08/13 11:30:20;;;;;;;6.28;1.30;;;23.30;92.20;;;;;;5048725;28;20045;-81
2023/08/13 11:32:46;;;;;;;4.63;1.10;;;23.30;92.90;;;;;;5030142;28;20041;-81
2023/08/13 11:35:11;;;;;;;5.68;1.33;;;23.30;93.60;;;;;;5032498;28;20056;-79
2023/08/13 11:37:38;;;;;;;5.63;1.20;;;23.40;93.00;;;;;;5028179;28;20044;-81
2023/08/13 11:40:05;;;;;;;6.43;1.50;;;23.40;92.60;;;;;;5029970;28;20388;-81
2023/08/13 11:42:32;;;;;;;5.70;1.23;;;23.40;94.20;;;;;;5029907;28;20477;-81
2023/08/13 11:44:58;;;;;;;5.25;1.08;;;23.40;93.20;;;;;;5023103;28;20063;-81
2023/08/13 11:47:26;;;;;;;14.75;1.50;;;23.40;93.30;;;;;;5031496;28;20108;-81
2023/08/13 11:49:51;;;;;;;6.13;1.30;;;23.40;92.70;;;;;;5023061;28;20082;-81
2023/08/13 11:52:21;;;;;;;34.53;2.22;;;23.40;93.20;;;;;;5028030;28;20081;-81
2023/08/13 11:54:47;;;;;;;10.32;1.67;;;23.40;93.30;;;;;;5013892;28;20052;-81
2023/08/13 11:57:13;;;;;;;13.98;1.70;;;23.50;93.10;;;;;;5027959;28;20053;-81
2023/08/13 11:59:39;;;;;;;10.80;1.67;;;23.50;93.10;;;;;;5035070;28;20051;-81
2023/08/13 12:02:05;;;;;;;9.65;1.40;;;23.50;93.90;;;;;;5024373;28;20047;-81
2023/08/13 12:04:34;;;;;;;9.23;1.48;;;23.50;92.90;;;;;;5026403;28;20132;-81
2023/08/13 12:07:04;;;;;;;7.68;1.45;;;23.50;93.30;;;;;;5016291;28;20046;-81
2023/08/13 12:09:30;;;;;;;7.68;1.48;;;23.60;93.00;;;;;;5026274;28;20516;-82
2023/08/13 12:11:57;;;;;;;10.63;1.42;;;23.60;93.00;;;;;;5024115;28;20052;-81
2023/08/13 12:14:22;;;;;;;8.85;1.40;;;23.60;93.30;;;;;;5033469;28;20111;-81
2023/08/13 12:16:48;;;;;;;10.35;1.27;;;23.60;93.80;;;;;;5033842;28;20495;-81
2023/08/13 12:19:13;;;;;;;7.43;1.60;;;23.70;94.60;;;;;;5046188;28;20029;-81
2023/08/13 12:21:39;;;;;;;4.95;1.30;;;23.70;93.20;;;;;;5033758;28;20095;-81
2023/08/13 12:24:06;;;;;;;5.75;1.40;;;23.70;92.10;;;;;;5032574;28;20038;-81
2023/08/13 12:26:32;;;;;;;6.30;1.30;;;23.70;92.00;;;;;;5032750;28;20050;-80
2023/08/13 12:28:58;;;;;;;6.57;1.40;;;23.70;93.10;;;;;;5033242;28;20045;-80
2023/08/13 12:31:25;;;;;;;6.57;1.38;;;23.70;92.50;;;;;;5054014;28;20522;-81
2023/08/13 12:33:54;;;;;;;6.35;1.50;;;23.70;91.80;;;;;;5044516;28;20056;-81
2023/08/13 12:36:20;;;;;;;7.95;1.50;;;23.70;91.70;;;;;;5037271;28;20041;-81
2023/08/13 12:38:46;;;;;;;9.35;1.60;;;23.70;91.40;;;;;;5033146;28;20052;-81
2023/08/13 12:41:12;;;;;;;4.40;1.33;;;23.80;92.20;;;;;;5033062;28;20045;-81